sensor_id;sensor_type;location;lat;lon;timestamp;temperature;humidity
17687;DHT22;8962;52.538;13.266;2024-02-16T00:02:14;10.90;99.90
17687;DHT22;8962;52.538;13.266;2024-02-16T00:04:42;10.90;99.90
17687;DHT22;8962;52.538;13.266;2024-02-16T00:07:09;10.90;99.90
17687;DHT22;8962;52.538;13.266;2024-02-16T00:09:36;10.90;99.90
17687;DHT22;8962;52.538;13.266;2024-02-16T00:12:05;10.90;99.90
17687;DHT22;8962;52.538;13.266;2024-02-16T00:14:32;10.90;99.90
17687;DHT22;8962;52.538;13.266;2024-02-16T00:17:01;10.80;99.90
17687;DHT22;8962;52.538;13.266;2024-02-16T00:19:30;10.80;99.90
17687;DHT22;8962;52.538;13.266;2024-02-16T00:21:58;10.80;99.90
17687;DHT22;8962;52.538;13.266;2024-02-16T00:24:25;10.80;99.90
17687;DHT22;8962;52.538;13.266;2024-02-16T00:26:53;10.80;99.90
17687;DHT22;8962;52.538;13.266;2024-02-16T00:29:20;10.80;99.90
17687;DHT22;8962;52.538;13.266;2024-02-16T00:31:47;10.80;99.90
17687;DHT22;8962;52.538;13.266;2024-02-16T00:34:14;10.80;99.90
17687;DHT22;8962;52.538;13.266;2024-02-16T00:36:45;10.80;99.90
17687;DHT22;8962;52.538;13.266;2024-02-16T00:39:12;10.80;99.90
17687;DHT22;8962;52.538;13.266;2024-02-16T00:41:39;10.80;99.90
17687;DHT22;8962;52.538;13.266;2024-02-16T00:44:06;10.70;99.90
17687;DHT22;8962;52.538;13.266;2024-02-16T00:46:35;10.80;99.90
17687;DHT22;8962;52.538;13.266;2024-02-16T00:49:03;10.80;99.90
17687;DHT22;8962;52.538;13.266;2024-02-16T00:51:30;10.80;99.90
17687;DHT22;8962;52.538;13.266;2024-02-16T00:53:59;10.80;99.90
17687;DHT22;8962;52.538;13.266;2024-02-16T00:56:26;10.80;99.90
17687;DHT22;8962;52.538;13.266;2024-02-16T00:58:53;10.70;99.90
17687;DHT22;8962;52.538;13.266;2024-02-16T01:01:21;10.70;99.90
17687;DHT22;8962;52.538;13.266;2024-02-16T01:03:48;10.70;99.90
17687;DHT22;8962;52.538;13.266;2024-02-16T01:06:19;10.70;99.90
17687;DHT22;8962;52.538;13.266;2024-02-16T01:08:46;10.60;99.90
17687;DHT22;8962;52.538;13.266;2024-02-16T01:11:15;10.60;99.90
17687;DHT22;8962;52.538;13.266;2024-02-16T01:13:42;10.60;99.90
17687;DHT22;8962;52.538;13.266;2024-02-16T01:16:09;10.60;99.90
17687;DHT22;8962;52.538;13.266;2024-02-16T01:18:37;10.60;99.90
17687;DHT22;8962;52.538;13.266;2024-02-16T01:21:04;10.50;99.90
17687;DHT22;8962;52.538;13.266;2024-02-16T01:23:31;10.50;99.90
17687;DHT22;8962;52.538;13.266;2024-02-16T01:25:59;10.50;99.90
17687;DHT22;8962;52.538;13.266;2024-02-16T01:28:28;10.40;99.90
17687;DHT22;8962;52.538;13.266;2024-02-16T01:30:55;10.40;99.90
17687;DHT22;8962;52.538;13.266;2024-02-16T01:33:22;10.40;99.90
17687;DHT22;8962;52.538;13.266;2024-02-16T01:35:50;10.40;99.90
17687;DHT22;8962;52.538;13.266;2024-02-16T01:38:17;10.40;99.90
17687;DHT22;8962;52.538;13.266;2024-02-16T01:40:44;10.40;99.90
17687;DHT22;8962;52.538;13.266;2024-02-16T01:43:11;10.30;99.90
17687;DHT22;8962;52.538;13.266;2024-02-16T01:45:40;10.30;99.90
17687;DHT22;8962;52.538;13.266;2024-02-16T01:48:09;10.30;99.90
17687;DHT22;8962;52.538;13.266;2024-02-16T01:50:36;10.30;99.90
17687;DHT22;8962;52.538;13.266;2024-02-16T01:53:03;10.40;99.90
17687;DHT22;8962;52.538;13.266;2024-02-16T01:55:31;10.30;99.90
17687;DHT22;8962;52.538;13.266;2024-02-16T01:58:00;10.30;99.90
17687;DHT22;8962;52.538;13.266;2024-02-16T02:00:27;10.30;99.90
17687;DHT22;8962;52.538;13.266;2024-02-16T02:02:56;10.30;99.90
17687;DHT22;8962;52.538;13.266;2024-02-16T02:05:23;10.30;99.90
17687;DHT22;8962;52.538;13.266;2024-02-16T02:07:50;10.30;99.90
17687;DHT22;8962;52.538;13.266;2024-02-16T02:10:18;10.30;99.90
17687;DHT22;8962;52.538;13.266;2024-02-16T02:12:45;10.20;99.90
17687;DHT22;8962;52.538;13.266;2024-02-16T02:15:13;10.20;99.90
17687;DHT22;8962;52.538;13.266;2024-02-16T02:17:41;10.30;99.90
17687;DHT22;8962;52.538;13.266;2024-02-16T02:20:10;10.30;99.90
17687;DHT22;8962;52.538;13.266;2024-02-16T02:22:39;10.30;99.90
17687;DHT22;8962;52.538;13.266;2024-02-16T02:25:08;10.30;99.90
17687;DHT22;8962;52.538;13.266;2024-02-16T02:27:36;10.30;99.90
17687;DHT22;8962;52.538;13.266;2024-02-16T02:30:05;10.30;99.90
17687;DHT22;8962;52.538;13.266;2024-02-16T02:32:32;10.30;99.90
17687;DHT22;8962;52.538;13.266;2024-02-16T02:34:59;10.30;99.90
17687;DHT22;8962;52.538;13.266;2024-02-16T02:37:27;10.30;99.90
17687;DHT22;8962;52.538;13.266;2024-02-16T02:39:55;10.30;99.90
17687;DHT22;8962;52.538;13.266;2024-02-16T02:42:23;10.40;99.90
17687;DHT22;8962;52.538;13.266;2024-02-16T02:44:50;10.40;99.90
17687;DHT22;8962;52.538;13.266;2024-02-16T02:47:17;10.40;99.90
17687;DHT22;8962;52.538;13.266;2024-02-16T02:49:46;10.40;99.90
17687;DHT22;8962;52.538;13.266;2024-02-16T02:52:13;10.40;99.90
17687;DHT22;8962;52.538;13.266;2024-02-16T02:54:40;10.40;99.90
17687;DHT22;8962;52.538;13.266;2024-02-16T02:57:09;10.40;99.90
17687;DHT22;8962;52.538;13.266;2024-02-16T02:59:36;10.50;99.90
17687;DHT22;8962;52.538;13.266;2024-02-16T03:02:03;10.40;99.90
17687;DHT22;8962;52.538;13.266;2024-02-16T03:04:31;10.40;99.90
17687;DHT22;8962;52.538;13.266;2024-02-16T03:06:59;10.40;99.90
17687;DHT22;8962;52.538;13.266;2024-02-16T03:09:26;10.30;99.90
17687;DHT22;8962;52.538;13.266;2024-02-16T03:11:53;10.40;99.90
17687;DHT22;8962;52.538;13.266;2024-02-16T03:14:21;10.30;99.90
17687;DHT22;8962;52.538;13.266;2024-02-16T03:16:48;10.30;99.90
17687;DHT22;8962;52.538;13.266;2024-02-16T03:19:15;10.30;99.90
17687;DHT22;8962;52.538;13.266;2024-02-16T03:21:42;10.30;99.90
17687;DHT22;8962;52.538;13.266;2024-02-16T03:24:09;10.30;99.90
17687;DHT22;8962;52.538;13.266;2024-02-16T03:26:36;10.30;99.90
17687;DHT22;8962;52.538;13.266;2024-02-16T03:29:04;10.30;99.90
17687;DHT22;8962;52.538;13.266;2024-02-16T03:31:32;10.30;99.90
17687;DHT22;8962;52.538;13.266;2024-02-16T03:34:00;10.30;99.90
17687;DHT22;8962;52.538;13.266;2024-02-16T03:36:27;10.30;99.90
17687;DHT22;8962;52.538;13.266;2024-02-16T03:38:54;10.30;99.90
17687;DHT22;8962;52.538;13.266;2024-02-16T03:41:23;10.20;99.90
17687;DHT22;8962;52.538;13.266;2024-02-16T03:43:50;10.20;99.90
17687;DHT22;8962;52.538;13.266;2024-02-16T03:46:19;10.20;99.90
17687;DHT22;8962;52.538;13.266;2024-02-16T03:48:47;10.10;99.90
17687;DHT22;8962;52.538;13.266;2024-02-16T03:51:14;10.10;99.90
17687;DHT22;8962;52.538;13.266;2024-02-16T03:53:41;10.10;99.90
17687;DHT22;8962;52.538;13.266;2024-02-16T03:56:10;10.10;99.90
17687;DHT22;8962;52.538;13.266;2024-02-16T03:58:37;10.10;99.90
17687;DHT22;8962;52.538;13.266;2024-02-16T04:01:05;10.10;99.90
17687;DHT22;8962;52.538;13.266;2024-02-16T04:03:32;10.10;99.90
17687;DHT22;8962;52.538;13.266;2024-02-16T04:06:01;10.10;99.90
17687;DHT22;8962;52.538;13.266;2024-02-16T04:08:30;10.10;99.90
17687;DHT22;8962;52.538;13.266;2024-02-16T04:10:57;10.10;99.90
17687;DHT22;8962;52.538;13.266;2024-02-16T04:13:24;10.10;99.90
17687;DHT22;8962;52.538;13.266;2024-02-16T04:15:51;10.10;99.90
17687;DHT22;8962;52.538;13.266;2024-02-16T04:18:18;10.10;99.90
17687;DHT22;8962;52.538;13.266;2024-02-16T04:20:45;10.10;99.90
17687;DHT22;8962;52.538;13.266;2024-02-16T04:23:13;10.10;99.90
17687;DHT22;8962;52.538;13.266;2024-02-16T04:25:41;10.10;99.90
17687;DHT22;8962;52.538;13.266;2024-02-16T04:28:09;10.20;99.90
17687;DHT22;8962;52.538;13.266;2024-02-16T04:30:36;10.20;99.90
17687;DHT22;8962;52.538;13.266;2024-02-16T04:33:04;10.20;99.90
17687;DHT22;8962;52.538;13.266;2024-02-16T04:35:31;10.30;99.90
17687;DHT22;8962;52.538;13.266;2024-02-16T04:37:59;10.30;99.90
17687;DHT22;8962;52.538;13.266;2024-02-16T04:40:27;10.30;99.90
17687;DHT22;8962;52.538;13.266;2024-02-16T04:42:54;10.30;99.90
17687;DHT22;8962;52.538;13.266;2024-02-16T04:45:23;10.30;99.90
17687;DHT22;8962;52.538;13.266;2024-02-16T04:47:50;10.30;99.90
17687;DHT22;8962;52.538;13.266;2024-02-16T04:50:17;10.20;99.90
17687;DHT22;8962;52.538;13.266;2024-02-16T04:52:44;10.20;99.90
17687;DHT22;8962;52.538;13.266;2024-02-16T04:55:11;10.20;99.90
17687;DHT22;8962;52.538;13.266;2024-02-16T04:57:40;10.10;99.90
17687;DHT22;8962;52.538;13.266;2024-02-16T05:00:08;10.10;99.90
17687;DHT22;8962;52.538;13.266;2024-02-16T05:02:36;10.10;99.90
17687;DHT22;8962;52.538;13.266;2024-02-16T05:05:04;10.10;99.90
17687;DHT22;8962;52.538;13.266;2024-02-16T05:07:31;10.00;99.90
17687;DHT22;8962;52.538;13.266;2024-02-16T05:09:58;9.90;99.90
17687;DHT22;8962;52.538;13.266;2024-02-16T05:12:26;9.90;99.90
17687;DHT22;8962;52.538;13.266;2024-02-16T05:14:56;9.90;99.90
17687;DHT22;8962;52.538;13.266;2024-02-16T05:17:23;10.00;99.90
17687;DHT22;8962;52.538;13.266;2024-02-16T05:19:50;10.00;99.90
17687;DHT22;8962;52.538;13.266;2024-02-16T05:22:17;9.90;99.90
17687;DHT22;8962;52.538;13.266;2024-02-16T05:24:45;9.90;99.90
17687;DHT22;8962;52.538;13.266;2024-02-16T05:27:12;9.90;99.90
17687;DHT22;8962;52.538;13.266;2024-02-16T05:29:39;9.90;99.90
17687;DHT22;8962;52.538;13.266;2024-02-16T05:32:08;9.90;99.90
17687;DHT22;8962;52.538;13.266;2024-02-16T05:34:36;9.90;99.90
17687;DHT22;8962;52.538;13.266;2024-02-16T05:37:04;9.90;99.90
17687;DHT22;8962;52.538;13.266;2024-02-16T05:39:33;9.90;99.90
17687;DHT22;8962;52.538;13.266;2024-02-16T05:42:02;9.90;99.90
17687;DHT22;8962;52.538;13.266;2024-02-16T05:44:29;9.90;99.90
17687;DHT22;8962;52.538;13.266;2024-02-16T05:46:58;9.90;99.90
17687;DHT22;8962;52.538;13.266;2024-02-16T05:49:27;9.90;99.90
17687;DHT22;8962;52.538;13.266;2024-02-16T05:51:55;9.90;99.90
17687;DHT22;8962;52.538;13.266;2024-02-16T05:54:41;9.90;99.90
17687;DHT22;8962;52.538;13.266;2024-02-16T05:57:08;9.90;99.90
17687;DHT22;8962;52.538;13.266;2024-02-16T05:59:35;9.90;99.90
17687;DHT22;8962;52.538;13.266;2024-02-16T06:02:04;9.90;99.90
17687;DHT22;8962;52.538;13.266;2024-02-16T06:04:33;9.90;99.90
17687;DHT22;8962;52.538;13.266;2024-02-16T06:07:00;9.90;99.90
17687;DHT22;8962;52.538;13.266;2024-02-16T06:09:31;9.90;99.90
17687;DHT22;8962;52.538;13.266;2024-02-16T06:12:04;10.00;99.90
17687;DHT22;8962;52.538;13.266;2024-02-16T06:14:33;10.00;99.90
17687;DHT22;8962;52.538;13.266;2024-02-16T06:17:00;10.00;99.90
17687;DHT22;8962;52.538;13.266;2024-02-16T06:19:27;10.00;99.90
17687;DHT22;8962;52.538;13.266;2024-02-16T06:21:56;9.90;99.90
17687;DHT22;8962;52.538;13.266;2024-02-16T06:24:23;9.90;99.90
17687;DHT22;8962;52.538;13.266;2024-02-16T06:26:50;9.90;99.90
17687;DHT22;8962;52.538;13.266;2024-02-16T06:29:18;9.90;99.90
17687;DHT22;8962;52.538;13.266;2024-02-16T06:31:46;10.00;99.90
17687;DHT22;8962;52.538;13.266;2024-02-16T06:34:14;10.00;99.90
17687;DHT22;8962;52.538;13.266;2024-02-16T06:36:41;9.90;99.90
17687;DHT22;8962;52.538;13.266;2024-02-16T06:39:11;9.90;99.90
17687;DHT22;8962;52.538;13.266;2024-02-16T06:41:37;10.00;99.90
17687;DHT22;8962;52.538;13.266;2024-02-16T06:44:05;9.90;99.90
17687;DHT22;8962;52.538;13.266;2024-02-16T06:46:32;9.90;99.90
17687;DHT22;8962;52.538;13.266;2024-02-16T06:48:59;10.00;99.90
17687;DHT22;8962;52.538;13.266;2024-02-16T06:51:26;10.00;99.90
17687;DHT22;8962;52.538;13.266;2024-02-16T06:53:54;10.10;99.90
17687;DHT22;8962;52.538;13.266;2024-02-16T06:56:23;10.10;99.90
17687;DHT22;8962;52.538;13.266;2024-02-16T06:58:50;10.20;99.90
17687;DHT22;8962;52.538;13.266;2024-02-16T07:01:17;10.20;99.90
17687;DHT22;8962;52.538;13.266;2024-02-16T07:03:45;10.20;99.90
17687;DHT22;8962;52.538;13.266;2024-02-16T07:06:12;10.20;99.90
17687;DHT22;8962;52.538;13.266;2024-02-16T07:08:40;10.20;99.90
17687;DHT22;8962;52.538;13.266;2024-02-16T07:11:07;10.20;99.90
17687;DHT22;8962;52.538;13.266;2024-02-16T07:13:39;10.30;99.90
17687;DHT22;8962;52.538;13.266;2024-02-16T07:16:08;10.30;99.90
17687;DHT22;8962;52.538;13.266;2024-02-16T07:18:35;10.30;99.90
17687;DHT22;8962;52.538;13.266;2024-02-16T07:21:03;10.40;99.90
17687;DHT22;8962;52.538;13.266;2024-02-16T07:23:30;10.40;99.90
17687;DHT22;8962;52.538;13.266;2024-02-16T07:25:57;10.50;99.90
17687;DHT22;8962;52.538;13.266;2024-02-16T07:28:25;10.60;99.90
17687;DHT22;8962;52.538;13.266;2024-02-16T07:30:54;10.70;99.90
17687;DHT22;8962;52.538;13.266;2024-02-16T07:33:21;10.70;99.90
17687;DHT22;8962;52.538;13.266;2024-02-16T07:35:50;10.70;99.90
17687;DHT22;8962;52.538;13.266;2024-02-16T07:38:18;10.80;99.90
17687;DHT22;8962;52.538;13.266;2024-02-16T07:40:47;10.80;99.90
17687;DHT22;8962;52.538;13.266;2024-02-16T07:43:16;10.90;99.90
17687;DHT22;8962;52.538;13.266;2024-02-16T07:45:44;10.90;99.90
17687;DHT22;8962;52.538;13.266;2024-02-16T07:48:12;10.90;99.90
17687;DHT22;8962;52.538;13.266;2024-02-16T07:50:39;11.00;99.90
17687;DHT22;8962;52.538;13.266;2024-02-16T07:53:07;11.00;99.90
17687;DHT22;8962;52.538;13.266;2024-02-16T07:55:35;11.10;99.90
17687;DHT22;8962;52.538;13.266;2024-02-16T07:58:03;11.10;99.90
17687;DHT22;8962;52.538;13.266;2024-02-16T08:00:30;11.10;99.90
17687;DHT22;8962;52.538;13.266;2024-02-16T08:02:57;11.20;99.90
17687;DHT22;8962;52.538;13.266;2024-02-16T08:05:26;11.30;99.90
17687;DHT22;8962;52.538;13.266;2024-02-16T08:07:53;11.30;99.90
17687;DHT22;8962;52.538;13.266;2024-02-16T08:10:21;11.40;99.90
17687;DHT22;8962;52.538;13.266;2024-02-16T08:12:49;11.40;99.90
17687;DHT22;8962;52.538;13.266;2024-02-16T08:15:16;11.50;99.90
17687;DHT22;8962;52.538;13.266;2024-02-16T08:17:48;11.50;99.90
17687;DHT22;8962;52.538;13.266;2024-02-16T08:20:16;11.60;99.90
17687;DHT22;8962;52.538;13.266;2024-02-16T08:22:45;11.70;99.90
17687;DHT22;8962;52.538;13.266;2024-02-16T08:25:12;11.90;99.90
17687;DHT22;8962;52.538;13.266;2024-02-16T08:27:40;11.90;99.90
17687;DHT22;8962;52.538;13.266;2024-02-16T08:30:08;11.90;99.90
17687;DHT22;8962;52.538;13.266;2024-02-16T08:32:37;11.90;99.90
17687;DHT22;8962;52.538;13.266;2024-02-16T08:35:05;12.00;99.90
17687;DHT22;8962;52.538;13.266;2024-02-16T08:37:32;12.00;99.90
17687;DHT22;8962;52.538;13.266;2024-02-16T08:40:01;12.00;99.90
17687;DHT22;8962;52.538;13.266;2024-02-16T08:42:30;12.10;99.90
17687;DHT22;8962;52.538;13.266;2024-02-16T08:44:57;12.10;99.90
17687;DHT22;8962;52.538;13.266;2024-02-16T08:47:26;12.10;99.90
17687;DHT22;8962;52.538;13.266;2024-02-16T08:49:54;12.10;99.90
17687;DHT22;8962;52.538;13.266;2024-02-16T08:52:21;12.30;99.90
17687;DHT22;8962;52.538;13.266;2024-02-16T08:54:48;12.40;99.90
17687;DHT22;8962;52.538;13.266;2024-02-16T08:57:17;12.50;99.90
17687;DHT22;8962;52.538;13.266;2024-02-16T08:59:46;12.60;99.90
17687;DHT22;8962;52.538;13.266;2024-02-16T09:02:14;12.60;99.90
17687;DHT22;8962;52.538;13.266;2024-02-16T09:04:41;12.70;99.90
17687;DHT22;8962;52.538;13.266;2024-02-16T09:07:08;12.80;99.90
17687;DHT22;8962;52.538;13.266;2024-02-16T09:09:36;12.80;99.90
17687;DHT22;8962;52.538;13.266;2024-02-16T09:12:06;12.90;99.90
17687;DHT22;8962;52.538;13.266;2024-02-16T09:14:34;13.00;99.90
17687;DHT22;8962;52.538;13.266;2024-02-16T09:17:01;13.20;99.90
17687;DHT22;8962;52.538;13.266;2024-02-16T09:19:28;13.40;99.90
17687;DHT22;8962;52.538;13.266;2024-02-16T09:21:55;13.60;99.90
17687;DHT22;8962;52.538;13.266;2024-02-16T09:24:24;13.80;99.90
17687;DHT22;8962;52.538;13.266;2024-02-16T09:26:54;13.90;99.90
17687;DHT22;8962;52.538;13.266;2024-02-16T09:29:22;14.00;99.90
17687;DHT22;8962;52.538;13.266;2024-02-16T09:31:50;14.20;99.90
17687;DHT22;8962;52.538;13.266;2024-02-16T09:34:17;14.20;99.90
17687;DHT22;8962;52.538;13.266;2024-02-16T09:36:44;14.50;99.90
17687;DHT22;8962;52.538;13.266;2024-02-16T09:39:12;14.60;99.90
17687;DHT22;8962;52.538;13.266;2024-02-16T09:41:42;14.60;99.90
17687;DHT22;8962;52.538;13.266;2024-02-16T09:44:09;14.70;99.90
17687;DHT22;8962;52.538;13.266;2024-02-16T09:46:37;14.80;99.90
17687;DHT22;8962;52.538;13.266;2024-02-16T09:49:08;14.80;99.90
17687;DHT22;8962;52.538;13.266;2024-02-16T09:51:36;14.90;99.90
17687;DHT22;8962;52.538;13.266;2024-02-16T09:54:05;14.90;99.90
17687;DHT22;8962;52.538;13.266;2024-02-16T09:56:34;14.90;99.90
17687;DHT22;8962;52.538;13.266;2024-02-16T09:59:01;15.00;99.90
17687;DHT22;8962;52.538;13.266;2024-02-16T10:01:28;14.90;99.90
17687;DHT22;8962;52.538;13.266;2024-02-16T10:04:05;14.70;99.90
17687;DHT22;8962;52.538;13.266;2024-02-16T10:06:44;14.70;99.90
17687;DHT22;8962;52.538;13.266;2024-02-16T10:09:22;14.70;99.90
17687;DHT22;8962;52.538;13.266;2024-02-16T10:11:49;14.70;99.90
17687;DHT22;8962;52.538;13.266;2024-02-16T10:14:17;14.60;99.90
17687;DHT22;8962;52.538;13.266;2024-02-16T10:16:45;14.50;99.90
17687;DHT22;8962;52.538;13.266;2024-02-16T10:19:13;14.60;99.90
17687;DHT22;8962;52.538;13.266;2024-02-16T10:21:42;14.60;99.90
17687;DHT22;8962;52.538;13.266;2024-02-16T10:24:11;14.70;99.90
17687;DHT22;8962;52.538;13.266;2024-02-16T10:26:40;14.80;99.90
17687;DHT22;8962;52.538;13.266;2024-02-16T10:29:09;14.80;99.90
17687;DHT22;8962;52.538;13.266;2024-02-16T10:31:36;14.90;99.90
17687;DHT22;8962;52.538;13.266;2024-02-16T10:34:05;14.90;99.90
17687;DHT22;8962;52.538;13.266;2024-02-16T10:36:33;15.00;99.90
17687;DHT22;8962;52.538;13.266;2024-02-16T10:39:03;15.10;99.90
17687;DHT22;8962;52.538;13.266;2024-02-16T10:41:33;14.90;99.90
17687;DHT22;8962;52.538;13.266;2024-02-16T10:44:03;14.80;99.90
17687;DHT22;8962;52.538;13.266;2024-02-16T10:46:31;14.80;99.90
17687;DHT22;8962;52.538;13.266;2024-02-16T10:48:59;14.70;99.90
17687;DHT22;8962;52.538;13.266;2024-02-16T10:51:30;14.70;99.90
17687;DHT22;8962;52.538;13.266;2024-02-16T10:54:02;14.60;99.90
17687;DHT22;8962;52.538;13.266;2024-02-16T10:56:34;14.50;99.90
17687;DHT22;8962;52.538;13.266;2024-02-16T10:59:03;14.50;99.90
17687;DHT22;8962;52.538;13.266;2024-02-16T11:01:37;14.60;99.90
17687;DHT22;8962;52.538;13.266;2024-02-16T11:04:05;14.70;99.90
17687;DHT22;8962;52.538;13.266;2024-02-16T11:06:52;14.80;99.90
17687;DHT22;8962;52.538;13.266;2024-02-16T11:09:34;15.00;99.90
17687;DHT22;8962;52.538;13.266;2024-02-16T11:12:03;15.00;99.90
17687;DHT22;8962;52.538;13.266;2024-02-16T11:14:37;15.10;99.90
17687;DHT22;8962;52.538;13.266;2024-02-16T11:17:08;15.30;99.90
17687;DHT22;8962;52.538;13.266;2024-02-16T11:19:36;15.40;99.90
17687;DHT22;8962;52.538;13.266;2024-02-16T11:22:04;15.40;99.90
17687;DHT22;8962;52.538;13.266;2024-02-16T11:24:36;15.50;99.90
17687;DHT22;8962;52.538;13.266;2024-02-16T11:27:04;15.70;99.90
17687;DHT22;8962;52.538;13.266;2024-02-16T11:29:32;15.90;99.90
17687;DHT22;8962;52.538;13.266;2024-02-16T11:32:00;16.00;99.90
17687;DHT22;8962;52.538;13.266;2024-02-16T11:34:28;16.20;99.90
17687;DHT22;8962;52.538;13.266;2024-02-16T11:36:55;16.30;99.90
17687;DHT22;8962;52.538;13.266;2024-02-16T11:39:23;16.40;99.90
17687;DHT22;8962;52.538;13.266;2024-02-16T11:42:00;16.90;99.90
17687;DHT22;8962;52.538;13.266;2024-02-16T11:44:29;17.90;99.90
17687;DHT22;8962;52.538;13.266;2024-02-16T11:46:57;18.50;99.90
17687;DHT22;8962;52.538;13.266;2024-02-16T11:49:25;18.70;99.90
17687;DHT22;8962;52.538;13.266;2024-02-16T11:51:52;18.60;99.90
17687;DHT22;8962;52.538;13.266;2024-02-16T11:54:19;18.10;99.90
17687;DHT22;8962;52.538;13.266;2024-02-16T11:56:48;17.70;99.90
17687;DHT22;8962;52.538;13.266;2024-02-16T11:59:18;17.50;99.90
17687;DHT22;8962;52.538;13.266;2024-02-16T12:01:51;17.20;99.90
17687;DHT22;8962;52.538;13.266;2024-02-16T12:04:23;17.30;99.90
17687;DHT22;8962;52.538;13.266;2024-02-16T12:06:51;17.50;99.90
17687;DHT22;8962;52.538;13.266;2024-02-16T12:09:19;17.80;99.90
17687;DHT22;8962;52.538;13.266;2024-02-16T12:11:48;18.70;99.90
17687;DHT22;8962;52.538;13.266;2024-02-16T12:14:19;19.60;99.90
17687;DHT22;8962;52.538;13.266;2024-02-16T12:16:51;19.70;99.90
17687;DHT22;8962;52.538;13.266;2024-02-16T12:19:18;19.50;99.90
17687;DHT22;8962;52.538;13.266;2024-02-16T12:21:48;19.30;99.90
17687;DHT22;8962;52.538;13.266;2024-02-16T12:24:16;18.90;99.90
17687;DHT22;8962;52.538;13.266;2024-02-16T12:26:43;18.60;99.90
17687;DHT22;8962;52.538;13.266;2024-02-16T12:29:11;18.50;99.90
17687;DHT22;8962;52.538;13.266;2024-02-16T12:31:40;18.90;99.90
17687;DHT22;8962;52.538;13.266;2024-02-16T12:34:08;19.20;99.90
17687;DHT22;8962;52.538;13.266;2024-02-16T12:36:35;19.40;99.90
17687;DHT22;8962;52.538;13.266;2024-02-16T12:39:03;19.00;99.90
17687;DHT22;8962;52.538;13.266;2024-02-16T12:41:31;18.70;99.90
17687;DHT22;8962;52.538;13.266;2024-02-16T12:44:00;18.30;99.90
17687;DHT22;8962;52.538;13.266;2024-02-16T12:46:27;18.00;99.90
17687;DHT22;8962;52.538;13.266;2024-02-16T12:48:58;17.80;99.90
17687;DHT22;8962;52.538;13.266;2024-02-16T12:51:25;17.80;99.90
17687;DHT22;8962;52.538;13.266;2024-02-16T12:53:53;17.70;99.90
17687;DHT22;8962;52.538;13.266;2024-02-16T12:56:21;17.60;99.90
17687;DHT22;8962;52.538;13.266;2024-02-16T12:58:48;17.50;99.90
17687;DHT22;8962;52.538;13.266;2024-02-16T13:01:15;17.50;99.90
17687;DHT22;8962;52.538;13.266;2024-02-16T13:03:44;17.30;99.90
17687;DHT22;8962;52.538;13.266;2024-02-16T13:06:12;17.10;99.90
17687;DHT22;8962;52.538;13.266;2024-02-16T13:08:39;17.10;99.90
17687;DHT22;8962;52.538;13.266;2024-02-16T13:11:06;17.20;99.90
17687;DHT22;8962;52.538;13.266;2024-02-16T13:13:35;17.10;99.90
17687;DHT22;8962;52.538;13.266;2024-02-16T13:16:03;17.20;99.90
17687;DHT22;8962;52.538;13.266;2024-02-16T13:18:33;17.20;99.90
17687;DHT22;8962;52.538;13.266;2024-02-16T13:21:00;17.30;99.90
17687;DHT22;8962;52.538;13.266;2024-02-16T13:23:30;17.30;99.90
17687;DHT22;8962;52.538;13.266;2024-02-16T13:25:58;17.30;99.90
17687;DHT22;8962;52.538;13.266;2024-02-16T13:28:25;17.30;99.90
17687;DHT22;8962;52.538;13.266;2024-02-16T13:30:52;17.30;99.90
17687;DHT22;8962;52.538;13.266;2024-02-16T13:33:19;17.40;99.90
17687;DHT22;8962;52.538;13.266;2024-02-16T13:35:46;17.60;99.90
17687;DHT22;8962;52.538;13.266;2024-02-16T13:38:14;17.70;99.90
17687;DHT22;8962;52.538;13.266;2024-02-16T13:40:44;17.90;99.90
17687;DHT22;8962;52.538;13.266;2024-02-16T13:43:11;17.60;99.90
17687;DHT22;8962;52.538;13.266;2024-02-16T13:45:48;17.40;99.90
17687;DHT22;8962;52.538;13.266;2024-02-16T13:48:16;17.40;99.90
17687;DHT22;8962;52.538;13.266;2024-02-16T13:50:45;17.50;99.90
17687;DHT22;8962;52.538;13.266;2024-02-16T13:53:13;17.50;99.90
17687;DHT22;8962;52.538;13.266;2024-02-16T13:55:41;17.60;99.90
17687;DHT22;8962;52.538;13.266;2024-02-16T13:58:12;17.60;99.90
17687;DHT22;8962;52.538;13.266;2024-02-16T14:00:39;17.50;99.90
17687;DHT22;8962;52.538;13.266;2024-02-16T14:03:06;17.60;99.90
17687;DHT22;8962;52.538;13.266;2024-02-16T14:05:37;17.50;99.90
17687;DHT22;8962;52.538;13.266;2024-02-16T14:08:05;17.60;99.90
17687;DHT22;8962;52.538;13.266;2024-02-16T14:10:33;17.50;99.90
17687;DHT22;8962;52.538;13.266;2024-02-16T14:13:00;17.60;99.90
17687;DHT22;8962;52.538;13.266;2024-02-16T14:15:29;17.60;99.90
17687;DHT22;8962;52.538;13.266;2024-02-16T14:17:56;17.70;99.90
17687;DHT22;8962;52.538;13.266;2024-02-16T14:20:24;17.60;99.90
17687;DHT22;8962;52.538;13.266;2024-02-16T14:22:51;17.60;99.90
17687;DHT22;8962;52.538;13.266;2024-02-16T14:25:18;17.40;99.90
17687;DHT22;8962;52.538;13.266;2024-02-16T14:27:45;17.20;99.90
17687;DHT22;8962;52.538;13.266;2024-02-16T14:30:13;17.10;99.90
17687;DHT22;8962;52.538;13.266;2024-02-16T14:32:43;17.00;99.90
17687;DHT22;8962;52.538;13.266;2024-02-16T14:35:10;16.90;99.90
17687;DHT22;8962;52.538;13.266;2024-02-16T14:37:38;16.90;99.90
17687;DHT22;8962;52.538;13.266;2024-02-16T14:40:07;16.70;99.90
17687;DHT22;8962;52.538;13.266;2024-02-16T14:42:35;16.70;99.90
17687;DHT22;8962;52.538;13.266;2024-02-16T14:45:04;16.60;99.90
17687;DHT22;8962;52.538;13.266;2024-02-16T14:47:35;16.50;99.90
17687;DHT22;8962;52.538;13.266;2024-02-16T14:50:05;16.40;99.90
17687;DHT22;8962;52.538;13.266;2024-02-16T14:52:33;16.40;99.90
17687;DHT22;8962;52.538;13.266;2024-02-16T14:55:00;16.30;99.90
17687;DHT22;8962;52.538;13.266;2024-02-16T14:57:28;16.30;99.90
17687;DHT22;8962;52.538;13.266;2024-02-16T14:59:55;16.30;99.90
17687;DHT22;8962;52.538;13.266;2024-02-16T15:02:23;16.30;99.90
17687;DHT22;8962;52.538;13.266;2024-02-16T15:04:51;16.30;99.90
17687;DHT22;8962;52.538;13.266;2024-02-16T15:07:21;16.30;99.90
17687;DHT22;8962;52.538;13.266;2024-02-16T15:09:48;16.30;99.90
17687;DHT22;8962;52.538;13.266;2024-02-16T15:12:15;16.20;99.90
17687;DHT22;8962;52.538;13.266;2024-02-16T15:14:44;16.30;99.90
17687;DHT22;8962;52.538;13.266;2024-02-16T15:17:11;16.20;99.90
17687;DHT22;8962;52.538;13.266;2024-02-16T15:19:39;16.20;99.90
17687;DHT22;8962;52.538;13.266;2024-02-16T15:22:06;16.10;99.90
17687;DHT22;8962;52.538;13.266;2024-02-16T15:24:35;16.10;99.90
17687;DHT22;8962;52.538;13.266;2024-02-16T15:27:02;16.00;99.90
17687;DHT22;8962;52.538;13.266;2024-02-16T15:29:30;16.10;99.90
17687;DHT22;8962;52.538;13.266;2024-02-16T15:31:58;16.00;99.90
17687;DHT22;8962;52.538;13.266;2024-02-16T15:34:26;16.00;99.90
17687;DHT22;8962;52.538;13.266;2024-02-16T15:36:54;15.90;99.90
17687;DHT22;8962;52.538;13.266;2024-02-16T15:39:24;15.90;99.90